Silvana, Washington
Current Conditions -  °F | °C
As of 4:15 PM on Monday 20 Oct 2014 (Local Time) from KAWO Reporting Station
Broken Clouds Broken Clouds  
Wind Chill: 63°   Ceiling: 9000
Heat Index: 63°   Visibility: 10mi
Dew Point: 54°   Wind: 14mph
Humidity: 72%   Direction: 130°SE
Pressure: 29.76"   Gusts: 20mph
Location:  48.2°N, 122.25°W
Report Text: KAWO 202315Z AUTO 13012G17KT 10SM BKN090 17/12 A2976 RMK AO1
Loading
Personal Weather Stations






























Interactive Weather Map
Tropical Storm Tracking
New forecast layout! Learn more

10-Day Weather Forecast

Advertisements
Track Severe Weather on mobile